createdAt,value
2019-01-06T00:00:36.197Z,85.74
2019-01-06T00:01:36.186Z,86.36
2019-01-06T00:02:36.201Z,86.05
2019-01-06T00:03:36.184Z,86.26
2019-01-06T00:04:36.170Z,86.16
2019-01-06T00:05:36.171Z,86.41
2019-01-06T00:06:36.155Z,86.41
2019-01-06T00:07:36.135Z,86.36
2019-01-06T00:08:36.142Z,85.68
2019-01-06T00:09:36.116Z,86.47
2019-01-06T00:10:36.105Z,86.19
2019-01-06T00:11:36.109Z,86.47
2019-01-06T00:12:36.086Z,86.72
2019-01-06T00:13:36.074Z,86.57
2019-01-06T00:14:36.047Z,86.99
2019-01-06T00:15:36.032Z,86.68
2019-01-06T00:16:36.019Z,87.24
2019-01-06T00:17:36.010Z,87.13
2019-01-06T00:18:36.157Z,87.09
2019-01-06T00:19:35.986Z,86.68
2019-01-06T00:20:35.974Z,86.57
2019-01-06T00:21:35.967Z,86.36
2019-01-06T00:22:35.953Z,86.57
2019-01-06T00:23:35.940Z,86.57
2019-01-06T00:24:35.930Z,86.68
2019-01-06T00:25:35.920Z,86.78
2019-01-06T00:26:35.907Z,87.09
2019-01-06T00:27:35.897Z,86.99
2019-01-06T00:28:35.888Z,86.68
2019-01-06T00:29:35.874Z,86.72
2019-01-06T00:30:35.866Z,86.78
2019-01-06T00:31:35.854Z,87.13
2019-01-06T00:32:35.846Z,87.13
2019-01-06T00:33:35.831Z,87.24
2019-01-06T00:34:35.823Z,87.24
2019-01-06T00:35:35.811Z,87.34
2019-01-06T00:36:35.796Z,87.03
2019-01-06T00:37:35.787Z,87.24
2019-01-06T00:38:35.775Z,87.34
2019-01-06T00:39:35.764Z,87.76
2019-01-06T00:40:35.751Z,87.86
2019-01-06T00:41:35.740Z,87.86
2019-01-06T00:42:35.733Z,88.84
2019-01-06T00:43:35.720Z,87.90
2019-01-06T00:44:35.709Z,88.52
2019-01-06T00:45:35.700Z,89.15
2019-01-06T00:46:35.688Z,88.98
2019-01-06T00:47:35.678Z,89.46
2019-01-06T00:48:35.664Z,89.29
2019-01-06T00:49:35.654Z,89.70
2019-01-06T00:50:35.643Z,89.50
2019-01-06T00:51:35.630Z,89.81
2019-01-06T00:52:35.621Z,89.50
2019-01-06T00:53:35.610Z,89.50
2019-01-06T00:54:35.598Z,89.70
2019-01-06T00:55:35.587Z,89.92
2019-01-06T00:56:35.575Z,90.33
2019-01-06T00:57:35.565Z,90.33
2019-01-06T00:58:35.554Z,89.85
2019-01-06T00:59:35.544Z,90.23
2019-01-06T01:00:35.530Z,90.12
2019-01-06T01:01:35.520Z,90.85
2019-01-06T01:02:35.515Z,90.79
2019-01-06T01:03:35.498Z,90.58
2019-01-06T01:04:35.486Z,90.12
2019-01-06T01:05:35.476Z,90.02
2019-01-06T01:06:35.476Z,90.16
2019-01-06T01:07:35.454Z,90.16
2019-01-06T01:08:35.442Z,89.81
2019-01-06T01:09:35.952Z,90.12
2019-01-06T01:10:35.419Z,90.12
2019-01-06T01:11:35.420Z,90.37
2019-01-06T01:12:35.397Z,89.85
2019-01-06T01:13:35.390Z,89.95
2019-01-06T01:14:35.376Z,90.26
2019-01-06T01:15:35.367Z,90.37
2019-01-06T01:16:35.358Z,90.37
2019-01-06T01:17:35.353Z,89.54
2019-01-06T01:18:35.331Z,89.02
2019-01-06T01:19:35.320Z,89.06
2019-01-06T01:20:35.314Z,88.92
2019-01-06T01:21:35.300Z,89.17
2019-01-06T01:22:35.289Z,89.27
2019-01-06T01:23:35.277Z,88.64
2019-01-06T01:24:35.266Z,88.54
2019-01-06T01:25:35.257Z,89.17
2019-01-06T01:26:35.246Z,89.17
2019-01-06T01:27:35.234Z,88.96
2019-01-06T01:28:35.223Z,89.17
2019-01-06T01:29:35.211Z,89.06
2019-01-06T01:30:35.203Z,89.06
2019-01-06T01:31:35.186Z,89.48
2019-01-06T01:32:35.178Z,89.06
2019-01-06T01:33:35.168Z,89.58
2019-01-06T01:34:35.155Z,89.58
2019-01-06T01:35:35.143Z,89.37
2019-01-06T01:36:35.136Z,89.89
2019-01-06T01:37:35.123Z,89.79
2019-01-06T01:38:35.110Z,90.10
2019-01-06T01:39:35.102Z,90.14
2019-01-06T01:40:35.098Z,90.10
2019-01-06T01:41:35.078Z,89.69
2019-01-06T01:42:35.070Z,89.48
2019-01-06T01:43:35.069Z,89.37
2019-01-06T01:44:35.043Z,89.73
2019-01-06T01:45:35.031Z,89.58
2019-01-06T01:46:35.022Z,89.41
2019-01-06T01:47:35.012Z,89.62
2019-01-06T01:48:34.998Z,90.35
2019-01-06T01:49:54.616Z,90.14
2019-01-06T01:51:17.021Z,90.14
2019-01-06T01:52:17.008Z,90.45
2019-01-06T01:53:17.003Z,90.77
2019-01-06T01:54:16.988Z,90.87
2019-01-06T01:55:16.979Z,90.45
2019-01-06T01:56:16.970Z,89.94
2019-01-06T01:57:16.957Z,90.14
2019-01-06T01:58:16.943Z,90.45
2019-01-06T01:59:16.933Z,90.77
2019-01-06T02:00:16.927Z,90.97
2019-01-06T02:01:16.939Z,90.97
2019-01-06T02:02:16.908Z,90.87
2019-01-06T02:03:16.888Z,90.56
2019-01-06T02:04:16.875Z,90.87
2019-01-06T02:05:16.865Z,91.08
2019-01-06T02:06:16.853Z,90.97
2019-01-06T02:07:16.848Z,90.97
2019-01-06T02:08:16.833Z,90.97
2019-01-06T02:09:16.823Z,90.87
2019-01-06T02:10:16.811Z,90.97
2019-01-06T02:11:16.800Z,91.08
2019-01-06T02:12:16.791Z,90.87
2019-01-06T02:13:16.780Z,90.45
2019-01-06T02:14:16.784Z,90.45
2019-01-06T02:15:16.763Z,90.35
2019-01-06T02:16:16.750Z,89.83
2019-01-06T02:17:16.733Z,90.35
2019-01-06T02:18:16.723Z,90.14
2019-01-06T02:19:16.710Z,90.66
2019-01-06T02:20:16.700Z,90.97
2019-01-06T02:21:16.696Z,90.97
2019-01-06T02:22:16.680Z,90.97
2019-01-06T02:23:16.667Z,90.66
2019-01-06T02:24:16.658Z,90.56
2019-01-06T02:25:16.650Z,90.56
2019-01-06T02:26:16.635Z,90.97
2019-01-06T02:27:16.629Z,91.50
2019-01-06T02:28:16.614Z,91.50
2019-01-06T02:29:16.599Z,91.39
2019-01-06T02:30:16.590Z,91.50
2019-01-06T02:31:16.588Z,91.28
2019-01-06T02:32:16.570Z,91.50
2019-01-06T02:33:16.561Z,91.71
2019-01-06T02:34:16.546Z,91.28
2019-01-06T02:35:16.535Z,91.08
2019-01-06T02:36:16.521Z,90.97
2019-01-06T02:37:16.515Z,90.97
2019-01-06T02:38:16.507Z,91.18
2019-01-06T02:39:16.494Z,90.97
2019-01-06T02:40:16.498Z,91.08
2019-01-06T02:41:16.469Z,91.12
2019-01-06T02:42:16.455Z,91.50
2019-01-06T02:43:16.445Z,91.96
2019-01-06T02:44:16.437Z,91.50
2019-01-06T02:45:16.427Z,91.43
2019-01-06T02:46:16.415Z,91.75
2019-01-06T02:47:16.403Z,91.75
2019-01-06T02:48:16.393Z,91.85
2019-01-06T02:49:16.381Z,91.75
2019-01-06T02:50:16.373Z,91.22
2019-01-06T02:51:16.360Z,91.75
2019-01-06T02:52:16.346Z,91.85
2019-01-06T02:53:16.337Z,91.75
2019-01-06T02:54:16.331Z,92.16
2019-01-06T02:55:16.314Z,91.96
2019-01-06T02:56:16.302Z,92.47
2019-01-06T02:57:16.293Z,92.37
2019-01-06T02:58:16.281Z,92.37
2019-01-06T02:59:16.272Z,92.16
2019-01-06T03:00:16.263Z,92.37
2019-01-06T03:01:16.249Z,92.27
2019-01-06T03:02:16.238Z,92.27
2019-01-06T03:03:16.230Z,92.37
2019-01-06T03:04:16.214Z,92.37
2019-01-06T03:05:16.208Z,92.16
2019-01-06T03:06:16.193Z,92.37
2019-01-06T03:07:16.188Z,92.27
2019-01-06T03:08:16.175Z,92.27
2019-01-06T03:09:16.171Z,92.06
2019-01-06T03:10:16.151Z,92.89
2019-01-06T03:11:16.139Z,92.37
2019-01-06T03:12:16.129Z,92.37
2019-01-06T03:13:16.116Z,92.27
2019-01-06T03:14:16.108Z,92.16
2019-01-06T03:15:16.094Z,92.22
2019-01-06T03:16:16.084Z,92.37
2019-01-06T03:17:16.073Z,92.16
2019-01-06T03:18:16.063Z,92.47
2019-01-06T03:19:16.064Z,92.27
2019-01-06T03:20:16.040Z,92.37
2019-01-06T03:21:16.029Z,91.96
2019-01-06T03:22:16.018Z,91.96
2019-01-06T03:23:16.006Z,91.60
2019-01-06T03:24:15.995Z,91.81
2019-01-06T03:25:15.986Z,92.16
2019-01-06T03:26:15.974Z,91.91
2019-01-06T03:27:15.962Z,92.22
2019-01-06T03:28:15.949Z,92.12
2019-01-06T03:29:15.942Z,91.71
2019-01-06T03:30:15.943Z,91.28
2019-01-06T03:31:15.917Z,91.28
2019-01-06T03:32:15.908Z,91.08
2019-01-06T03:33:15.909Z,91.02
2019-01-06T03:34:15.887Z,90.87
2019-01-06T03:35:15.873Z,90.97
2019-01-06T03:36:15.862Z,91.08
2019-01-06T03:37:15.853Z,91.43
2019-01-06T03:38:15.848Z,90.66
2019-01-06T03:39:15.833Z,90.91
2019-01-06T03:40:15.823Z,90.97
2019-01-06T03:41:15.806Z,90.77
2019-01-06T03:42:15.801Z,90.25
2019-01-06T03:43:15.785Z,89.87
2019-01-06T03:44:15.780Z,90.35
2019-01-06T03:45:15.764Z,90.19
2019-01-06T03:46:15.753Z,89.94
2019-01-06T03:47:15.742Z,90.25
2019-01-06T03:48:15.731Z,90.81
2019-01-06T03:49:15.718Z,90.97
2019-01-06T03:50:15.707Z,90.97
2019-01-06T03:51:15.694Z,90.56
2019-01-06T03:52:15.686Z,89.66
2019-01-06T03:53:15.674Z,89.73
2019-01-06T03:54:15.663Z,89.45
2019-01-06T03:55:15.662Z,89.76
2019-01-06T03:56:15.644Z,90.29
2019-01-06T03:57:15.628Z,90.25
2019-01-06T03:58:15.619Z,89.45
2019-01-06T03:59:15.609Z,89.98
2019-01-06T04:00:15.596Z,89.52
2019-01-06T04:01:15.587Z,89.73
2019-01-06T04:02:15.575Z,89.52
2019-01-06T04:03:15.585Z,89.62
2019-01-06T04:04:15.554Z,89.66
2019-01-06T04:05:15.546Z,89.56
2019-01-06T04:06:15.531Z,89.41
2019-01-06T04:07:15.518Z,89.41
2019-01-06T04:08:15.508Z,89.45
2019-01-06T04:09:15.501Z,89.66
2019-01-06T04:10:33.681Z,89.76
2019-01-06T04:11:57.520Z,89.41
2019-01-06T04:13:15.639Z,89.62
2019-01-06T04:14:39.537Z,88.89
2019-01-06T04:15:39.524Z,89.25
2019-01-06T04:16:39.514Z,89.14
2019-01-06T04:17:39.519Z,89.10
2019-01-06T04:18:39.492Z,88.58
2019-01-06T04:19:39.480Z,88.68
2019-01-06T04:20:39.474Z,89.31
2019-01-06T04:21:39.458Z,89.41
2019-01-06T04:22:39.453Z,89.20
2019-01-06T04:23:39.436Z,88.58
2019-01-06T04:24:39.424Z,88.58
2019-01-06T04:25:39.416Z,88.58
2019-01-06T04:26:39.406Z,88.68
2019-01-06T04:27:39.394Z,88.79
2019-01-06T04:28:39.379Z,88.73
2019-01-06T04:29:39.370Z,88.79
2019-01-06T04:30:39.361Z,89.10
2019-01-06T04:31:39.348Z,88.52
2019-01-06T04:32:39.336Z,88.58
2019-01-06T04:33:39.328Z,88.42
2019-01-06T04:34:39.319Z,88.42
2019-01-06T04:35:39.305Z,88.52
2019-01-06T04:36:39.298Z,88.52
2019-01-06T04:37:39.279Z,88.62
2019-01-06T04:38:39.269Z,88.68
2019-01-06T04:39:39.258Z,88.62
2019-01-06T04:40:39.246Z,88.83
2019-01-06T04:41:39.238Z,89.14
2019-01-06T04:42:39.227Z,89.04
2019-01-06T04:43:39.218Z,89.14
2019-01-06T04:44:39.202Z,89.35
2019-01-06T04:45:39.191Z,89.25
2019-01-06T04:46:39.181Z,89.14
2019-01-06T04:47:39.168Z,89.20
2019-01-06T04:48:39.158Z,89.25
2019-01-06T04:49:39.146Z,89.20
2019-01-06T04:50:39.135Z,89.87
2019-01-06T04:51:39.124Z,89.10
2019-01-06T04:52:39.115Z,89.41
2019-01-06T04:53:39.101Z,89.10
2019-01-06T04:54:39.089Z,88.93
2019-01-06T04:55:39.085Z,89.25
2019-01-06T04:56:39.068Z,89.14
2019-01-06T04:57:39.056Z,88.93
2019-01-06T04:58:39.045Z,87.99
2019-01-06T04:59:39.039Z,88.27
2019-01-06T05:00:39.026Z,89.14
2019-01-06T05:01:58.637Z,88.89
2019-01-06T05:03:21.051Z,88.93
2019-01-06T05:04:21.031Z,88.06
2019-01-06T05:05:21.022Z,89.04
2019-01-06T05:06:21.010Z,89.04
2019-01-06T05:07:21.001Z,89.35
2019-01-06T05:08:20.989Z,88.20
2019-01-06T05:09:20.982Z,87.85
2019-01-06T05:10:20.968Z,87.89
2019-01-06T05:11:20.959Z,87.68
2019-01-06T05:12:20.944Z,87.65
2019-01-06T05:13:20.932Z,88.10
2019-01-06T05:14:20.924Z,88.73
2019-01-06T05:15:20.911Z,88.83
2019-01-06T05:16:20.904Z,89.04
2019-01-06T05:17:20.890Z,88.20
2019-01-06T05:18:20.878Z,88.10
2019-01-06T05:19:20.903Z,88.17
2019-01-06T05:20:20.858Z,88.83
2019-01-06T05:21:20.847Z,88.68
2019-01-06T05:22:20.833Z,87.99
2019-01-06T05:23:20.826Z,88.83
2019-01-06T05:24:20.813Z,88.10
2019-01-06T05:25:20.800Z,88.10
2019-01-06T05:26:20.790Z,88.20
2019-01-06T05:27:20.779Z,88.20
2019-01-06T05:28:20.768Z,89.45
2019-01-06T05:29:20.757Z,89.73
2019-01-06T05:30:20.744Z,89.52
2019-01-06T05:31:20.733Z,89.73
2019-01-06T05:32:20.723Z,89.10
2019-01-06T05:33:20.711Z,89.00
2019-01-06T05:34:20.702Z,88.37
2019-01-06T05:35:20.700Z,87.96
2019-01-06T05:36:20.679Z,87.33
2019-01-06T05:37:20.673Z,87.33
2019-01-06T05:38:20.660Z,87.33
2019-01-06T05:39:20.645Z,86.91
2019-01-06T05:40:20.635Z,87.02
2019-01-06T05:41:20.622Z,86.85
2019-01-06T05:42:20.614Z,86.85
2019-01-06T05:43:20.601Z,87.16
2019-01-06T05:44:20.591Z,87.48
2019-01-06T05:45:20.580Z,87.48
2019-01-06T05:46:20.567Z,87.48
2019-01-06T05:47:20.556Z,87.37
2019-01-06T05:48:20.544Z,87.37
2019-01-06T05:49:20.533Z,87.27
2019-01-06T05:50:20.529Z,87.68
2019-01-06T05:51:20.514Z,87.99
2019-01-06T05:52:20.501Z,87.89
2019-01-06T05:53:20.492Z,87.68
2019-01-06T05:54:20.481Z,88.10
2019-01-06T05:55:20.471Z,87.79
2019-01-06T05:56:20.456Z,87.89
2019-01-06T05:57:20.448Z,87.79
2019-01-06T05:58:20.434Z,87.99
2019-01-06T05:59:20.423Z,87.99
2019-01-06T06:00:20.414Z,87.99
2019-01-06T06:01:20.403Z,88.20
2019-01-06T06:02:20.389Z,87.99
2019-01-06T06:03:20.379Z,87.89
2019-01-06T06:04:20.369Z,87.79
2019-01-06T06:05:20.360Z,87.58
2019-01-06T06:06:20.350Z,87.68
2019-01-06T06:07:20.337Z,87.58
2019-01-06T06:08:20.324Z,87.48
2019-01-06T06:09:20.316Z,87.68
2019-01-06T06:10:20.303Z,87.48
2019-01-06T06:11:20.293Z,87.23
2019-01-06T06:12:20.279Z,87.48
2019-01-06T06:13:20.270Z,87.27
2019-01-06T06:14:20.261Z,87.54
2019-01-06T06:15:20.247Z,87.27
2019-01-06T06:16:20.237Z,87.37
2019-01-06T06:17:20.226Z,87.06
2019-01-06T06:18:20.214Z,87.33
2019-01-06T06:19:20.206Z,86.96
2019-01-06T06:20:20.192Z,87.06
2019-01-06T06:21:20.182Z,87.16
2019-01-06T06:23:47.616Z,86.96
2019-01-06T06:24:47.606Z,86.96
2019-01-06T06:25:47.595Z,87.27
2019-01-06T06:26:47.583Z,87.37
2019-01-06T06:27:47.574Z,86.96
2019-01-06T06:28:47.561Z,86.96
2019-01-06T06:29:47.551Z,86.96
2019-01-06T06:30:47.539Z,87.27
2019-01-06T06:31:47.530Z,87.06
2019-01-06T06:32:47.517Z,86.75
2019-01-06T06:33:47.506Z,86.43
2019-01-06T06:34:47.495Z,86.33
2019-01-06T06:35:47.483Z,86.54
2019-01-06T06:36:47.473Z,86.54
2019-01-06T06:37:47.462Z,87.27
2019-01-06T06:38:47.449Z,87.06
2019-01-06T06:39:47.438Z,86.85
2019-01-06T06:40:47.431Z,87.06
2019-01-06T06:41:47.417Z,87.37
2019-01-06T06:42:47.404Z,87.06
2019-01-06T06:43:47.397Z,87.06
2019-01-06T06:44:47.395Z,86.96
2019-01-06T06:45:47.372Z,87.23
2019-01-06T06:46:47.362Z,86.85
2019-01-06T06:47:47.351Z,86.85
2019-01-06T06:48:47.343Z,86.85
2019-01-06T06:49:47.329Z,86.85
2019-01-06T06:50:47.330Z,87.48
2019-01-06T06:51:47.312Z,87.37
2019-01-06T06:52:47.294Z,87.41
2019-01-06T06:53:47.285Z,87.37
2019-01-06T06:54:47.276Z,87.48
2019-01-06T06:55:47.261Z,87.52
2019-01-06T06:56:47.252Z,87.58
2019-01-06T06:57:47.240Z,87.27
2019-01-06T06:58:47.227Z,87.37
2019-01-06T06:59:47.228Z,87.48
2019-01-06T07:00:47.206Z,87.37
2019-01-06T07:01:47.247Z,87.48
2019-01-06T07:02:47.183Z,87.37
2019-01-06T07:03:47.172Z,87.48
2019-01-06T07:04:47.167Z,86.96
2019-01-06T07:05:47.149Z,87.16
2019-01-06T07:06:47.143Z,86.85
2019-01-06T07:07:47.129Z,86.96
2019-01-06T07:08:47.117Z,86.89
2019-01-06T07:09:47.114Z,86.85
2019-01-06T07:10:47.097Z,86.96
2019-01-06T07:11:47.086Z,86.96
2019-01-06T07:12:47.073Z,86.96
2019-01-06T07:13:47.062Z,86.96
2019-01-06T07:14:47.050Z,86.89
2019-01-06T07:15:47.041Z,87.37
2019-01-06T07:16:47.029Z,87.27
2019-01-06T07:17:47.019Z,87.27
2019-01-06T07:18:47.006Z,86.96
2019-01-06T07:19:46.996Z,86.96
2019-01-06T07:20:46.998Z,86.43
2019-01-06T07:21:47.846Z,86.33
2019-01-06T07:22:47.005Z,87.06
2019-01-06T07:23:46.952Z,86.96
2019-01-06T07:24:46.940Z,86.96
2019-01-06T07:25:46.929Z,86.96
2019-01-06T07:26:46.918Z,86.96
2019-01-06T07:27:46.910Z,86.85
2019-01-06T07:28:46.899Z,86.85
2019-01-06T07:29:46.914Z,87.27
2019-01-06T07:30:46.876Z,87.16
2019-01-06T07:31:46.865Z,87.06
2019-01-06T07:32:46.874Z,87.27
2019-01-06T07:33:46.843Z,87.27
2019-01-06T07:34:46.831Z,87.37
2019-01-06T07:35:46.822Z,87.27
2019-01-06T07:36:46.811Z,87.06
2019-01-06T07:37:46.797Z,86.85
2019-01-06T07:39:07.420Z,87.16
2019-01-06T07:40:28.818Z,86.96
2019-01-06T07:41:28.808Z,87.16
2019-01-06T07:42:28.795Z,86.85
2019-01-06T07:43:28.786Z,87.37
2019-01-06T07:44:28.778Z,87.16
2019-01-06T07:45:28.763Z,86.54
2019-01-06T07:46:28.754Z,86.43
2019-01-06T07:47:28.743Z,86.33
2019-01-06T07:48:28.733Z,86.65
2019-01-06T07:49:28.720Z,86.65
2019-01-06T07:50:28.708Z,87.23
2019-01-06T07:51:28.697Z,87.06
2019-01-06T07:52:28.690Z,85.98
2019-01-06T07:53:28.676Z,86.29
2019-01-06T07:54:28.665Z,86.29
2019-01-06T07:55:28.655Z,85.88
2019-01-06T07:56:28.643Z,85.14
2019-01-06T07:57:28.630Z,86.19
2019-01-06T07:58:28.620Z,85.56
2019-01-06T07:59:28.614Z,85.14
2019-01-06T08:00:28.600Z,85.46
2019-01-06T08:01:28.588Z,85.77
2019-01-06T08:02:28.576Z,85.46
2019-01-06T08:03:28.565Z,85.77
2019-01-06T08:04:28.553Z,85.35
2019-01-06T08:05:28.542Z,85.25
2019-01-06T08:06:28.534Z,85.42
2019-01-06T08:07:28.521Z,85.46
2019-01-06T08:08:28.511Z,85.11
2019-01-06T08:09:28.502Z,84.83
2019-01-06T08:10:28.488Z,85.31
2019-01-06T08:11:28.491Z,84.48
2019-01-06T08:12:28.465Z,84.38
2019-01-06T08:13:28.455Z,84.80
2019-01-06T08:14:28.443Z,84.17
2019-01-06T08:15:28.434Z,83.54
2019-01-06T08:16:28.425Z,83.44
2019-01-06T08:17:28.409Z,83.23
2019-01-06T08:18:28.399Z,83.75
2019-01-06T08:19:28.393Z,83.65
2019-01-06T08:20:28.377Z,83.54
2019-01-06T08:21:28.367Z,83.65
2019-01-06T08:22:28.359Z,83.34
2019-01-06T08:23:28.344Z,83.40
2019-01-06T08:24:28.339Z,83.40
2019-01-06T08:25:28.322Z,83.09
2019-01-06T08:26:28.311Z,82.89
2019-01-06T08:27:28.299Z,82.78
2019-01-06T08:28:28.289Z,82.78
2019-01-06T08:29:28.279Z,82.78
2019-01-06T08:30:28.270Z,82.68
2019-01-06T08:31:28.267Z,82.22
2019-01-06T08:32:28.243Z,82.01
2019-01-06T08:33:28.236Z,81.91
2019-01-06T08:34:28.224Z,82.01
2019-01-06T08:35:28.213Z,81.49
2019-01-06T08:36:28.205Z,81.81
2019-01-06T08:37:28.193Z,81.39
2019-01-06T08:38:28.180Z,81.95
2019-01-06T08:39:28.169Z,82.05
2019-01-06T08:40:28.160Z,82.05
2019-01-06T08:41:28.146Z,82.12
2019-01-06T08:42:28.141Z,82.01
2019-01-06T08:43:28.125Z,81.60
2019-01-06T08:44:28.113Z,81.81
2019-01-06T08:45:28.103Z,81.81
2019-01-06T08:46:28.094Z,81.39
2019-01-06T08:47:28.081Z,81.18
2019-01-06T08:48:28.071Z,81.49
2019-01-06T08:49:28.060Z,81.18
2019-01-06T08:50:28.051Z,81.60
2019-01-06T08:51:28.039Z,81.70
2019-01-06T08:52:28.027Z,81.70
2019-01-06T08:53:28.016Z,81.49
2019-01-06T08:54:28.005Z,81.60
2019-01-06T08:55:27.993Z,80.98
2019-01-06T08:56:27.986Z,80.66
2019-01-06T08:57:27.972Z,80.25
2019-01-06T08:58:27.961Z,80.46
2019-01-06T08:59:27.949Z,80.87
2019-01-06T09:00:28.070Z,80.25
2019-01-06T09:01:27.984Z,80.66
2019-01-06T09:02:27.918Z,80.94
2019-01-06T09:03:27.907Z,80.94
2019-01-06T09:04:27.898Z,80.63
2019-01-06T09:05:27.887Z,80.11
2019-01-06T09:06:27.874Z,80.32
2019-01-06T09:07:27.862Z,80.73
2019-01-06T09:08:27.853Z,80.52
2019-01-06T09:09:27.840Z,80.42
2019-01-06T09:10:27.844Z,79.80
2019-01-06T09:11:27.817Z,80.11
2019-01-06T09:12:27.815Z,80.00
2019-01-06T09:13:27.796Z,79.48
2019-01-06T09:14:27.786Z,78.86
2019-01-06T09:15:27.774Z,79.27
2019-01-06T09:16:27.765Z,79.58
2019-01-06T09:17:27.752Z,79.27
2019-01-06T09:18:27.743Z,79.27
2019-01-06T09:19:27.730Z,79.06
2019-01-06T09:20:27.718Z,79.27
2019-01-06T09:21:27.708Z,79.38
2019-01-06T09:22:27.696Z,78.89
2019-01-06T09:23:27.688Z,79.17
2019-01-06T09:24:27.678Z,78.55
2019-01-06T09:25:27.665Z,79.06
2019-01-06T09:26:27.656Z,78.96
2019-01-06T09:27:27.642Z,79.69
2019-01-06T09:28:27.633Z,80.21
2019-01-06T09:29:27.626Z,78.92
2019-01-06T09:30:27.610Z,79.24
2019-01-06T09:31:27.598Z,78.51
2019-01-06T09:32:27.586Z,78.30
2019-01-06T09:33:27.576Z,78.30
2019-01-06T09:34:27.566Z,78.20
2019-01-06T09:35:27.556Z,78.61
2019-01-06T09:36:27.543Z,78.41
2019-01-06T09:37:27.533Z,78.82
2019-01-06T09:38:27.522Z,78.41
2019-01-06T09:39:27.519Z,78.82
2019-01-06T09:40:27.501Z,78.58
2019-01-06T09:41:27.496Z,78.37
2019-01-06T09:42:27.480Z,78.27
2019-01-06T09:43:27.471Z,78.89
2019-01-06T09:44:27.456Z,78.16
2019-01-06T09:45:27.494Z,78.16
2019-01-06T09:46:27.433Z,77.58
2019-01-06T09:47:27.430Z,77.33
2019-01-06T09:48:27.411Z,76.95
2019-01-06T09:49:27.401Z,76.75
2019-01-06T09:50:27.391Z,76.92
2019-01-06T09:51:27.382Z,76.92
2019-01-06T09:52:27.367Z,76.61
2019-01-06T09:53:27.356Z,76.71
2019-01-06T09:54:27.344Z,77.23
2019-01-06T09:55:27.336Z,76.81
2019-01-06T09:56:27.324Z,77.33
2019-01-06T09:57:27.315Z,77.64
2019-01-06T09:58:27.301Z,78.06
2019-01-06T09:59:27.291Z,78.78
2019-01-06T10:00:27.281Z,78.99
2019-01-06T10:01:27.269Z,78.44
2019-01-06T10:02:27.259Z,77.92
2019-01-06T10:03:27.249Z,76.78
2019-01-06T10:04:34.824Z,78.96
2019-01-06T10:05:28.224Z,78.44
2019-01-06T10:06:27.215Z,76.89
2019-01-06T10:07:27.206Z,75.85
2019-01-06T10:08:27.192Z,76.47
2019-01-06T10:09:27.182Z,75.64
2019-01-06T10:10:27.177Z,77.09
2019-01-06T10:11:27.157Z,78.23
2019-01-06T10:12:27.152Z,77.09
2019-01-06T10:13:27.137Z,76.12
2019-01-06T10:14:27.125Z,76.02
2019-01-06T10:15:27.116Z,74.88
2019-01-06T10:16:27.106Z,75.29
2019-01-06T10:17:27.093Z,75.19
2019-01-06T10:18:27.084Z,74.88
2019-01-06T10:19:27.071Z,75.02
2019-01-06T10:20:27.062Z,75.54
2019-01-06T10:21:27.050Z,74.67
2019-01-06T10:22:27.039Z,74.81
2019-01-06T10:23:27.030Z,75.02
2019-01-06T10:24:27.017Z,74.40
2019-01-06T10:25:27.006Z,74.36
2019-01-06T10:26:26.995Z,75.19
2019-01-06T10:27:26.985Z,74.88
2019-01-06T10:28:27.024Z,75.60
2019-01-06T10:29:26.963Z,75.71
2019-01-06T10:30:26.952Z,74.11
2019-01-06T10:31:26.942Z,73.49
2019-01-06T10:32:26.932Z,73.49
2019-01-06T10:33:26.916Z,74.01
2019-01-06T10:34:27.629Z,73.60
2019-01-06T10:35:26.911Z,74.01
2019-01-06T10:36:26.884Z,73.80
2019-01-06T10:37:26.872Z,72.56
2019-01-06T10:38:26.866Z,72.53
2019-01-06T10:39:26.879Z,72.74
2019-01-06T10:40:26.840Z,72.63
2019-01-06T10:41:26.829Z,71.88
2019-01-06T10:42:26.915Z,71.77
2019-01-06T10:43:26.808Z,71.56
2019-01-06T10:44:26.797Z,71.88
2019-01-06T10:45:26.792Z,71.88
2019-01-06T10:46:26.775Z,71.67
2019-01-06T10:47:26.762Z,71.43
2019-01-06T10:48:26.751Z,70.39
2019-01-06T10:49:26.743Z,71.12
2019-01-06T10:50:28.311Z,70.50
2019-01-06T10:51:26.722Z,71.22
2019-01-06T10:52:26.708Z,70.91
2019-01-06T10:53:26.698Z,70.39
2019-01-06T10:54:26.685Z,70.91
2019-01-06T10:55:26.679Z,70.63
2019-01-06T10:56:26.663Z,70.63
2019-01-06T10:57:26.656Z,71.56
2019-01-06T10:58:26.644Z,71.77
2019-01-06T10:59:26.630Z,71.36
2019-01-06T11:00:26.618Z,71.15
2019-01-06T11:01:26.611Z,71.25
2019-01-06T11:02:26.600Z,71.25
2019-01-06T11:03:26.587Z,70.84
2019-01-06T11:04:26.576Z,70.42
2019-01-06T11:05:26.571Z,70.53
2019-01-06T11:06:26.552Z,70.56
2019-01-06T11:07:26.544Z,70.04
2019-01-06T11:08:26.534Z,70.76
2019-01-06T11:09:26.524Z,71.28
2019-01-06T11:10:26.509Z,70.56
2019-01-06T11:11:26.500Z,71.08
2019-01-06T11:12:26.489Z,71.18
2019-01-06T11:13:26.479Z,71.28
2019-01-06T11:14:26.468Z,71.80
2019-01-06T11:15:26.466Z,71.49
2019-01-06T11:16:26.454Z,71.80
2019-01-06T11:17:26.433Z,72.32
2019-01-06T11:18:26.424Z,72.42
2019-01-06T11:19:26.411Z,71.39
2019-01-06T11:20:26.400Z,70.76
2019-01-06T11:21:26.388Z,70.87
2019-01-06T11:22:26.382Z,70.97
2019-01-06T11:23:26.365Z,71.28
2019-01-06T11:24:26.355Z,72.11
2019-01-06T11:25:26.346Z,72.53
2019-01-06T11:26:26.340Z,72.32
2019-01-06T11:27:26.321Z,72.11
2019-01-06T11:28:26.316Z,71.59
2019-01-06T11:29:26.310Z,71.88
2019-01-06T11:30:26.288Z,71.98
2019-01-06T11:31:26.279Z,71.46
2019-01-06T11:32:26.267Z,71.25
2019-01-06T11:33:26.257Z,71.15
2019-01-06T11:34:26.245Z,71.46
2019-01-06T11:35:26.236Z,69.49
2019-01-06T11:36:26.224Z,69.39
2019-01-06T11:37:26.221Z,69.18
2019-01-06T11:38:26.202Z,67.63
2019-01-06T11:39:26.191Z,67.83
2019-01-06T11:40:26.181Z,67.52
2019-01-06T11:41:26.168Z,68.66
2019-01-06T11:42:26.159Z,68.66
2019-01-06T11:43:26.145Z,69.21
2019-01-06T11:44:26.141Z,69.01
2019-01-06T11:45:26.123Z,68.90
2019-01-06T11:46:26.113Z,68.90
2019-01-06T11:47:26.100Z,68.90
2019-01-06T11:48:26.092Z,69.63
2019-01-06T11:49:26.081Z,68.90
2019-01-06T11:50:26.073Z,69.01
2019-01-06T11:51:26.077Z,68.59
2019-01-06T11:52:26.062Z,69.01
2019-01-06T11:53:26.043Z,68.70
2019-01-06T11:54:26.029Z,69.94
2019-01-06T11:55:26.016Z,70.67
2019-01-06T11:56:26.016Z,70.36
2019-01-06T11:57:26.000Z,71.49
2019-01-06T11:58:25.980Z,70.67
2019-01-06T11:59:25.982Z,70.36
2019-01-06T12:00:25.965Z,70.56
2019-01-06T12:01:25.947Z,68.70
2019-01-06T12:02:25.937Z,69.56
2019-01-06T12:03:25.926Z,69.87
2019-01-06T12:04:25.915Z,70.18
2019-01-06T12:05:25.903Z,69.45
2019-01-06T12:06:25.893Z,69.24
2019-01-06T12:07:25.883Z,69.94
2019-01-06T12:08:25.873Z,69.56
2019-01-06T12:09:25.859Z,69.84
2019-01-06T12:10:25.856Z,69.63
2019-01-06T12:11:25.837Z,69.42
2019-01-06T12:12:25.833Z,68.80
2019-01-06T12:13:25.816Z,68.93
2019-01-06T12:14:25.810Z,69.01
2019-01-06T12:15:25.793Z,68.59
2019-01-06T12:16:25.783Z,68.38
2019-01-06T12:17:25.772Z,68.59
2019-01-06T12:18:25.778Z,68.80
2019-01-06T12:19:33.567Z,68.90
2019-01-06T12:20:26.742Z,68.90
2019-01-06T12:21:25.729Z,68.70
2019-01-06T12:22:25.717Z,68.59
2019-01-06T12:23:25.705Z,68.80
2019-01-06T12:24:25.697Z,69.21
2019-01-06T12:25:25.686Z,68.80
2019-01-06T12:26:25.673Z,68.31
2019-01-06T12:27:25.663Z,67.14
2019-01-06T12:28:25.652Z,67.35
2019-01-06T12:29:25.639Z,67.24
2019-01-06T12:30:25.628Z,68.38
2019-01-06T12:31:25.616Z,67.35
2019-01-06T12:32:25.608Z,67.14
2019-01-06T12:33:25.601Z,67.97
2019-01-06T12:34:25.586Z,67.97
2019-01-06T12:35:25.583Z,67.38
2019-01-06T12:36:25.563Z,67.27
2019-01-06T12:37:25.615Z,67.38
2019-01-06T12:38:25.547Z,68.00
2019-01-06T12:39:25.535Z,67.69
2019-01-06T12:40:25.519Z,68.83
2019-01-06T12:41:25.506Z,69.14
2019-01-06T12:42:25.498Z,69.56
2019-01-06T12:43:25.486Z,69.14
2019-01-06T12:44:26.961Z,69.14
2019-01-06T12:45:25.462Z,69.45
2019-01-06T12:46:25.451Z,69.35
2019-01-06T12:47:25.442Z,69.35
2019-01-06T12:48:25.434Z,69.04
2019-01-06T12:49:25.421Z,69.56
2019-01-06T12:50:26.217Z,69.17
2019-01-06T12:51:25.399Z,69.48
2019-01-06T12:52:25.386Z,69.07
2019-01-06T12:53:25.376Z,69.45
2019-01-06T12:54:25.384Z,69.27
2019-01-06T12:55:25.358Z,69.27
2019-01-06T12:56:25.347Z,69.48
2019-01-06T12:57:25.333Z,70.10